Time;durP1;ratioP1;P1;durP2;ratioP2;P2;SDS_P1;SDS_P2;PMS_P1;PMS_P2;Temp;Humidity;BMP_temperature;BMP_pressure;BME280_temperature;BME280_humidity;BME280_pressure;Samples;Min_cycle;Max_cycle;Signal;HPM_P1;HPM_P2
2021/01/22 05:17:56;;;;;;;1.10;1.10;;;6.40;98.80;;;;;;4880289;29;20224;-81
2021/01/22 05:20:34;;;;;;;0.90;0.90;;;6.50;98.60;;;;;;4883376;29;20267;-81
2021/01/22 05:23:03;;;;;;;0.90;0.90;;;6.70;98.50;;;;;;4883600;29;20211;-80
2021/01/22 05:25:31;;;;;;;0.97;0.97;;;6.70;99.90;;;;;;4883276;29;21867;-80
2021/01/22 05:27:59;;;;;;;1.10;1.10;;;6.90;98.10;;;;;;4873022;29;20272;-81
2021/01/22 05:30:28;;;;;;;1.00;1.00;;;6.90;97.50;;;;;;4908519;23;20529;-77
2021/01/22 05:33:15;;;;;;;1.00;1.00;;;7.00;97.40;;;;;;4909620;29;20199;-77
2021/01/22 05:35:42;;;;;;;1.03;1.03;;;7.10;97.30;;;;;;4917380;29;20254;-77
2021/01/22 05:38:09;;;;;;;0.80;0.80;;;7.10;97.20;;;;;;4917308;29;20210;-77
2021/01/22 05:40:36;;;;;;;1.10;1.10;;;;;;;;;;4917357;29;20234;-77
2021/01/22 05:43:04;;;;;;;1.07;1.07;;;7.00;96.90;;;;;;4917681;29;20209;-77
2021/01/22 05:45:39;;;;;;;1.00;1.00;;;7.00;97.20;;;;;;4917101;29;20604;-77
2021/01/22 05:48:18;;;;;;;0.90;0.90;;;7.00;97.20;;;;;;4917743;29;20207;-78
2021/01/22 05:50:48;;;;;;;0.87;0.87;;;7.10;97.30;;;;;;4917829;29;20315;-78
2021/01/22 05:53:17;;;;;;;1.00;1.00;;;7.00;97.20;;;;;;4917820;29;20211;-76
2021/01/22 05:55:45;;;;;;;0.90;0.90;;;7.00;97.00;;;;;;4917903;29;20672;-77
2021/01/22 05:58:28;;;;;;;1.20;1.20;;;7.00;97.30;;;;;;4918197;29;20214;-78
2021/01/22 06:01:04;;;;;;;1.00;1.00;;;6.90;97.30;;;;;;4926795;29;20231;-76
2021/01/22 06:03:32;;;;;;;1.07;1.07;;;7.00;97.50;;;;;;4917289;29;20202;-77
2021/01/22 06:05:59;;;;;;;1.03;1.03;;;7.00;99.90;;;;;;4893139;29;20260;-77
2021/01/22 06:08:26;;;;;;;1.00;1.00;;;6.90;97.70;;;;;;4878848;29;20331;-77
2021/01/22 06:10:53;;;;;;;1.00;1.00;;;6.90;97.70;;;;;;4879167;29;20289;-77
2021/01/22 06:13:25;;;;;;;0.90;0.90;;;6.90;97.90;;;;;;4879195;29;20211;-76
2021/01/22 06:15:55;;;;;;;0.90;0.90;;;6.90;98.20;;;;;;4879030;29;20212;-76
2021/01/22 06:18:28;;;;;;;1.10;1.10;;;6.90;98.10;;;;;;4879052;29;20215;-76
2021/01/22 06:21:10;;;;;;;1.00;1.00;;;6.90;98.10;;;;;;4878464;29;20287;-77
2021/01/22 06:23:38;;;;;;;0.90;0.90;;;6.90;98.20;;;;;;4878609;29;20682;-75
2021/01/22 06:26:06;;;;;;;1.00;1.00;;;6.90;98.20;;;;;;4878915;29;20244;-75
2021/01/22 06:28:35;;;;;;;0.90;0.90;;;6.90;98.30;;;;;;4878310;29;20662;-76
2021/01/22 06:31:04;;;;;;;0.90;0.90;;;6.90;98.20;;;;;;4878333;29;20239;-76
2021/01/22 06:33:33;;;;;;;0.90;0.90;;;7.00;98.00;;;;;;4878467;29;20219;-76
2021/01/22 06:36:02;;;;;;;1.00;1.00;;;7.00;98.30;;;;;;4878744;29;20319;-75
2021/01/22 06:38:42;;;;;;;0.90;0.90;;;7.00;98.30;;;;;;4878746;29;20211;-75
2021/01/22 06:41:09;;;;;;;1.00;1.00;;;7.00;98.60;;;;;;4878659;29;20604;-76
2021/01/22 06:43:38;;;;;;;1.00;1.00;;;7.00;97.90;;;;;;4896092;29;20258;-77
2021/01/22 06:46:08;;;;;;;1.13;1.13;;;7.00;98.20;;;;;;4896648;29;20279;-74
2021/01/22 06:48:53;;;;;;;1.00;1.00;;;6.90;98.40;;;;;;4896654;29;20207;-74
2021/01/22 06:51:21;;;;;;;1.10;1.10;;;6.70;98.70;;;;;;4895283;29;20227;-78
2021/01/22 06:54:04;;;;;;;1.00;1.00;;;6.60;98.90;;;;;;4896867;29;20214;-75
2021/01/22 06:56:31;;;;;;;1.00;1.00;;;6.60;99.20;;;;;;4896205;29;20676;-76
2021/01/22 06:59:35;;;;;;;1.00;1.00;;;6.50;99.70;;;;;;4896748;29;20215;-75
2021/01/22 13:01:09;;;;;;;0.60;0.60;;;13.50;85.20;;;;;;5573488;23;20326;-78
2021/01/22 13:03:39;;;;;;;0.50;0.50;;;13.60;85.70;;;;;;4921017;29;20279;-78
2021/01/22 13:06:06;;;;;;;0.50;0.50;;;13.70;85.80;;;;;;4920305;29;20226;-78
2021/01/22 13:08:33;;;;;;;0.50;0.50;;;13.40;86.30;;;;;;4920425;29;20210;-79
2021/01/22 13:11:00;;;;;;;0.50;0.50;;;13.40;86.70;;;;;;4920760;29;20234;-79
2021/01/22 13:13:28;;;;;;;0.50;0.50;;;13.30;86.20;;;;;;4921089;29;20206;-77
2021/01/22 13:15:55;;;;;;;0.63;0.63;;;;;;;;;;4920785;23;20648;-76
2021/01/22 13:18:23;;;;;;;0.60;0.60;;;12.60;99.90;;;;;;4898986;29;20630;-76
2021/01/22 13:20:50;;;;;;;0.50;0.50;;;12.30;99.90;;;;;;4899175;29;20709;-76
2021/01/22 13:23:30;;;;;;;0.50;0.50;;;12.40;99.90;;;;;;4898950;29;20687;-76
2021/01/22 13:25:58;;;;;;;0.60;0.60;;;;;;;;;;4898577;29;20604;-75
2021/01/22 13:28:25;;;;;;;0.50;0.50;;;11.90;99.90;;;;;;4898827;29;20211;-76
2021/01/22 13:30:52;;;;;;;0.60;0.60;;;;;;;;;;4898258;29;20266;-74
2021/01/22 13:33:19;;;;;;;0.77;0.77;;;11.90;99.90;;;;;;4898982;29;20624;-75
2021/01/22 13:35:47;;;;;;;0.60;0.60;;;11.80;99.90;;;;;;4899098;29;20235;-75
2021/01/22 13:38:14;;;;;;;0.55;0.55;;;11.80;99.90;;;;;;4898491;29;20204;-75
2021/01/22 13:40:41;;;;;;;0.60;0.60;;;12.00;99.90;;;;;;4898503;29;20567;-75
2021/01/22 13:43:08;;;;;;;0.50;0.50;;;;;;;;;;4898712;29;20279;-75
2021/01/22 13:45:35;;;;;;;0.70;0.70;;;11.60;99.90;;;;;;4898606;29;20282;-75
2021/01/22 13:48:04;;;;;;;0.70;0.70;;;11.40;99.90;;;;;;4898351;29;20207;-74
2021/01/22 13:50:31;;;;;;;0.60;0.60;;;11.10;99.90;;;;;;4898483;29;20207;-75
2021/01/22 13:52:59;;;;;;;0.70;0.70;;;10.90;99.90;;;;;;4898268;29;20207;-75
2021/01/22 13:55:27;;;;;;;0.70;0.70;;;;;;;;;;4897951;29;20235;-75
2021/01/22 13:57:53;;;;;;;0.80;0.80;;;10.80;99.90;;;;;;4898344;29;20207;-75
2021/01/22 14:00:21;;;;;;;0.73;0.73;;;10.70;99.90;;;;;;4898358;29;20208;-75
2021/01/22 14:02:48;;;;;;;0.70;0.70;;;10.40;99.90;;;;;;4898404;29;20215;-75
2021/01/22 14:05:16;;;;;;;0.80;0.80;;;10.50;99.90;;;;;;4897989;29;20235;-75
2021/01/22 14:07:43;;;;;;;0.80;0.80;;;10.20;99.90;;;;;;4897896;29;20211;-75
2021/01/22 14:10:11;;;;;;;0.80;0.80;;;10.40;99.90;;;;;;4884852;29;20204;-76
2021/01/22 14:12:39;;;;;;;0.70;0.70;;;;;;;;;;4879655;29;20625;-75
2021/01/22 14:15:06;;;;;;;0.80;0.80;;;10.50;99.90;;;;;;4886552;29;20306;-74
2021/01/22 14:17:33;;;;;;;0.60;0.60;;;10.40;99.90;;;;;;4887819;29;20199;-74
2021/01/22 14:20:00;;;;;;;0.70;0.70;;;10.30;99.90;;;;;;4887693;29;20199;-76
2021/01/22 14:22:29;;;;;;;0.60;0.60;;;10.40;99.90;;;;;;4889405;29;20203;-76
2021/01/22 14:24:56;;;;;;;0.80;0.80;;;10.60;99.90;;;;;;4888176;29;20223;-76
2021/01/22 14:27:23;;;;;;;0.80;0.80;;;10.60;99.90;;;;;;4887489;29;20211;-76
2021/01/22 14:29:50;;;;;;;0.70;0.70;;;10.60;99.90;;;;;;4884534;29;20215;-77
2021/01/22 14:32:17;;;;;;;0.80;0.80;;;10.60;99.90;;;;;;4886174;29;20233;-76
2021/01/22 14:34:45;;;;;;;0.70;0.70;;;;;;;;;;4885744;29;20307;-76
2021/01/22 14:37:12;;;;;;;0.73;0.73;;;10.40;99.90;;;;;;4887579;29;20287;-75
2021/01/22 14:39:39;;;;;;;0.70;0.70;;;10.60;99.90;;;;;;4886677;29;20257;-76
2021/01/22 14:42:08;;;;;;;0.70;0.70;;;10.90;99.90;;;;;;4887589;29;20276;-76
2021/01/22 14:44:36;;;;;;;0.70;0.70;;;10.60;99.90;;;;;;4886298;29;20234;-76
2021/01/22 14:47:03;;;;;;;0.70;0.70;;;10.50;99.90;;;;;;4887980;29;20259;-76
2021/01/22 14:49:31;;;;;;;0.70;0.70;;;;;;;;;;4880382;29;20207;-74
2021/01/22 14:51:58;;;;;;;0.70;0.70;;;10.40;99.90;;;;;;4892040;29;20200;-75
2021/01/22 14:54:24;;;;;;;0.70;0.70;;;10.60;99.90;;;;;;4897906;29;20275;-74
2021/01/22 14:56:51;;;;;;;0.70;0.70;;;10.30;99.90;;;;;;4896344;29;20200;-76
2021/01/22 14:59:18;;;;;;;0.70;0.70;;;10.70;99.90;;;;;;4879856;29;20208;-75
2021/01/22 15:01:46;;;;;;;0.73;0.73;;;10.30;99.90;;;;;;4891321;29;20627;-75
2021/01/22 15:04:13;;;;;;;0.70;0.70;;;;;;;;;;4893448;29;20680;-74
2021/01/22 15:06:41;;;;;;;0.70;0.70;;;10.10;99.90;;;;;;4892439;29;20223;-76
2021/01/22 15:09:07;;;;;;;0.80;0.80;;;10.10;99.90;;;;;;4885563;29;20204;-75
2021/01/22 15:11:34;;;;;;;0.80;0.80;;;9.70;99.90;;;;;;4886453;29;20647;-74
2021/01/22 15:14:02;;;;;;;0.70;0.70;;;;;;;;;;4893297;29;20207;-74
2021/01/22 15:16:29;;;;;;;0.70;0.70;;;9.70;99.90;;;;;;4885419;29;20279;-75
2021/01/22 15:18:57;;;;;;;0.73;0.73;;;9.70;99.90;;;;;;4887021;29;20211;-74
2021/01/22 15:21:24;;;;;;;0.80;0.80;;;9.20;99.90;;;;;;4885277;29;20259;-76
2021/01/22 15:23:51;;;;;;;0.80;0.80;;;9.40;99.90;;;;;;4887830;29;20204;-77
2021/01/22 15:26:20;;;;;;;0.90;0.90;;;9.50;99.90;;;;;;4886565;29;20314;-74
2021/01/22 15:28:47;;;;;;;0.60;0.60;;;9.90;99.90;;;;;;4887315;29;20199;-74
2021/01/22 15:31:14;;;;;;;0.80;0.80;;;9.30;99.90;;;;;;4886359;29;21241;-74
2021/01/22 15:33:41;;;;;;;0.90;0.90;;;9.30;99.90;;;;;;4885766;29;20209;-76
2021/01/22 15:36:09;;;;;;;0.70;0.70;;;9.40;99.90;;;;;;4887276;29;20218;-75
2021/01/22 15:38:36;;;;;;;0.70;0.70;;;9.00;99.90;;;;;;4885342;29;20204;-75
2021/01/22 15:41:04;;;;;;;0.90;0.90;;;9.00;99.90;;;;;;4885668;29;20259;-75
2021/01/22 15:43:31;;;;;;;0.95;0.95;;;8.90;99.90;;;;;;4886771;29;20282;-74
2021/01/22 15:46:00;;;;;;;0.70;0.70;;;9.10;99.90;;;;;;4885453;29;20220;-74
2021/01/22 15:48:28;;;;;;;0.80;0.80;;;9.00;99.90;;;;;;4886504;29;20204;-75
2021/01/22 15:50:54;;;;;;;0.80;0.80;;;9.10;99.90;;;;;;4884419;29;20203;-74
2021/01/22 15:53:23;;;;;;;0.80;0.80;;;9.00;99.90;;;;;;4887579;29;20223;-74
2021/01/22 15:55:50;;;;;;;0.80;0.80;;;9.00;99.90;;;;;;4888875;29;20216;-73
2021/01/22 15:58:18;;;;;;;0.88;0.88;;;9.00;99.90;;;;;;4889184;29;20266;-74
2021/01/22 16:00:45;;;;;;;0.80;0.80;;;;;;;;;;4890563;29;20199;-74
2021/01/22 16:03:12;;;;;;;0.80;0.80;;;9.10;99.90;;;;;;4889930;29;20252;-74
2021/01/22 16:05:39;;;;;;;0.70;0.70;;;;;;;;;;4888833;29;20227;-74
2021/01/22 16:08:07;;;;;;;0.80;0.80;;;9.10;99.90;;;;;;4890269;29;20200;-75
2021/01/22 16:10:35;;;;;;;0.80;0.80;;;9.00;99.90;;;;;;4889386;29;20623;-74
2021/01/22 16:13:02;;;;;;;0.90;0.90;;;9.10;99.90;;;;;;4888808;29;20291;-75
2021/01/22 16:15:30;;;;;;;0.90;0.90;;;8.80;99.90;;;;;;4889866;29;20234;-75
2021/01/22 16:17:56;;;;;;;0.80;0.80;;;8.80;99.90;;;;;;4895434;29;20214;-76
2021/01/22 16:20:24;;;;;;;0.80;0.80;;;8.70;99.90;;;;;;4885441;29;20637;-76
2021/01/22 16:22:51;;;;;;;0.90;0.90;;;;;;;;;;4887624;29;20207;-74
2021/01/22 16:25:18;;;;;;;0.80;0.80;;;8.60;99.90;;;;;;4894334;29;20724;-74
2021/01/22 16:27:45;;;;;;;0.80;0.80;;;8.90;99.90;;;;;;4884727;29;20264;-74
2021/01/22 16:30:13;;;;;;;0.80;0.80;;;8.60;99.90;;;;;;4887237;29;20203;-74
2021/01/22 16:32:40;;;;;;;0.90;0.90;;;;;;;;;;4887577;29;20267;-74
2021/01/22 16:35:09;;;;;;;0.87;0.87;;;8.30;99.90;;;;;;4887956;29;20223;-75
2021/01/22 16:37:36;;;;;;;0.90;0.90;;;8.30;99.90;;;;;;4889115;29;20230;-75
2021/01/22 16:40:05;;;;;;;0.90;0.90;;;8.50;99.90;;;;;;4888803;29;20290;-74
2021/01/22 16:42:32;;;;;;;0.87;0.87;;;8.60;99.90;;;;;;4890512;29;20668;-74
2021/01/22 16:45:00;;;;;;;0.90;0.90;;;8.90;99.90;;;;;;4889083;29;20216;-74
2021/01/22 16:47:28;;;;;;;0.80;0.80;;;8.50;99.90;;;;;;4888038;29;20205;-75
2021/01/22 16:49:55;;;;;;;0.90;0.90;;;8.10;99.90;;;;;;4886346;29;20208;-78
2021/01/22 16:52:22;;;;;;;0.90;0.90;;;8.00;99.90;;;;;;4885719;29;20200;-76
2021/01/22 16:54:49;;;;;;;0.90;0.90;;;8.40;99.90;;;;;;4881540;29;20227;-80
2021/01/22 16:57:16;;;;;;;0.80;0.80;;;8.60;99.90;;;;;;4882069;29;20215;-79
2021/01/22 16:59:43;;;;;;;0.97;0.97;;;;;;;;;;4882918;29;20220;-81
2021/01/22 17:02:11;;;;;;;0.80;0.80;;;8.10;99.90;;;;;;4882782;29;20263;-78
2021/01/22 17:04:38;;;;;;;0.83;0.83;;;8.00;99.90;;;;;;4879258;29;20264;-74
2021/01/22 17:07:05;;;;;;;0.80;0.80;;;;;;;;;;4879912;29;20215;-73
2021/01/22 17:09:32;;;;;;;1.00;1.00;;;8.00;99.90;;;;;;4880556;29;20560;-75
2021/01/22 17:12:00;;;;;;;0.83;0.83;;;;;;;;;;4880496;29;20231;-79
2021/01/22 17:14:27;;;;;;;0.90;0.90;;;;;;;;;;4881484;29;20211;-79
2021/01/22 17:16:54;;;;;;;0.90;0.90;;;8.10;99.90;;;;;;4880538;29;20215;-76
2021/01/22 17:19:26;;;;;;;0.93;0.93;;;7.90;99.90;;;;;;4884170;29;20212;-79
2021/01/22 17:21:53;;;;;;;1.17;1.17;;;7.80;99.90;;;;;;4899480;29;20303;-80
2021/01/22 17:24:20;;;;;;;1.00;1.00;;;;;;;;;;4894125;29;20212;-76
2021/01/22 17:26:47;;;;;;;1.07;1.07;;;;;;;;;;4888067;29;20236;-78
2021/01/22 17:29:14;;;;;;;0.90;0.90;;;;;;;;;;4891400;29;20212;-77
2021/01/22 17:31:41;;;;;;;0.80;0.80;;;7.90;99.90;;;;;;4893605;29;20199;-78
2021/01/22 17:34:08;;;;;;;0.90;0.90;;;;;;;;;;4889178;29;20227;-75
2021/01/22 17:36:36;;;;;;;0.90;0.90;;;7.80;99.90;;;;;;4889555;29;20219;-76
2021/01/22 17:39:04;;;;;;;0.93;0.93;;;;;;;;;;4888326;29;20204;-76
2021/01/22 17:41:32;;;;;;;0.90;0.90;;;8.10;99.90;;;;;;4887646;29;20208;-77
2021/01/22 17:43:58;;;;;;;0.90;0.90;;;8.20;99.90;;;;;;4887783;29;20201;-76
2021/01/22 17:46:25;;;;;;;0.87;0.87;;;7.70;99.90;;;;;;4888910;29;20288;-77
2021/01/22 17:48:52;;;;;;;0.80;0.80;;;7.80;99.90;;;;;;4888514;29;20626;-77
2021/01/22 17:51:19;;;;;;;0.90;0.90;;;7.90;99.90;;;;;;4894762;29;20625;-76
2021/01/22 17:53:47;;;;;;;0.90;0.90;;;8.00;99.90;;;;;;4894184;29;20200;-78
2021/01/22 17:56:15;;;;;;;0.90;0.90;;;;;;;;;;4902075;29;20232;-76
2021/01/22 17:58:42;;;;;;;1.00;1.00;;;7.80;99.90;;;;;;4901195;29;20199;-78
2021/01/22 18:01:09;;;;;;;0.90;0.90;;;7.80;99.90;;;;;;4897376;29;20676;-78
2021/01/22 18:03:36;;;;;;;1.00;1.00;;;8.00;99.90;;;;;;4896531;29;20206;-78
2021/01/22 18:06:05;;;;;;;0.90;0.90;;;;;;;;;;4894526;29;20231;-77
2021/01/22 18:08:35;;;;;;;0.80;0.80;;;7.80;99.90;;;;;;4895294;29;20195;-79
2021/01/22 18:11:03;;;;;;;0.80;0.80;;;7.80;99.90;;;;;;4889496;29;20208;-79
2021/01/22 18:13:30;;;;;;;0.87;0.87;;;8.00;99.90;;;;;;4891712;29;20275;-79
2021/01/22 18:15:57;;;;;;;0.87;0.87;;;8.00;99.90;;;;;;4893458;29;20223;-78
2021/01/22 18:18:24;;;;;;;0.87;0.87;;;7.60;99.90;;;;;;4884331;29;20204;-77
2021/01/22 18:20:51;;;;;;;0.80;0.80;;;;;;;;;;4890329;29;20200;-77
2021/01/22 18:23:18;;;;;;;0.80;0.80;;;7.70;99.90;;;;;;4888025;29;20208;-76
2021/01/22 18:25:45;;;;;;;0.90;0.90;;;7.90;99.90;;;;;;4884203;29;20215;-77
2021/01/22 18:28:13;;;;;;;0.90;0.90;;;8.50;99.90;;;;;;4898782;29;20212;-77
2021/01/22 18:30:41;;;;;;;0.70;0.70;;;;;;;;;;4898871;29;20592;-78
2021/01/22 18:33:08;;;;;;;0.90;0.90;;;7.90;99.90;;;;;;4895886;29;20381;-77
2021/01/22 18:35:36;;;;;;;0.80;0.80;;;;;;;;;;4892214;29;20224;-77
2021/01/22 18:38:03;;;;;;;0.90;0.90;;;7.90;99.90;;;;;;4896069;29;20231;-77
2021/01/22 18:40:31;;;;;;;0.90;0.90;;;8.20;99.90;;;;;;4895921;29;20259;-77
2021/01/22 18:42:58;;;;;;;0.80;0.80;;;7.90;99.90;;;;;;4895680;29;20587;-76
2021/01/22 18:45:26;;;;;;;0.80;0.80;;;7.90;99.90;;;;;;4895910;29;20231;-77
2021/01/22 18:47:53;;;;;;;1.05;1.05;;;;;;;;;;4895762;29;20267;-77
2021/01/22 18:50:20;;;;;;;0.90;0.90;;;8.20;99.90;;;;;;4896016;29;20227;-77
2021/01/22 18:52:47;;;;;;;0.70;0.70;;;8.00;99.90;;;;;;4896566;29;20294;-76
2021/01/22 18:55:14;;;;;;;1.00;1.00;;;8.20;99.90;;;;;;4896238;29;20768;-77
2021/01/22 18:57:41;;;;;;;0.95;0.95;;;;;;;;;;4896365;29;20211;-77
2021/01/22 19:00:09;;;;;;;1.00;1.00;;;8.00;99.90;;;;;;4897310;29;20207;-77
2021/01/22 19:02:37;;;;;;;0.70;0.70;;;8.10;99.90;;;;;;4892453;29;20262;-77
2021/01/22 19:05:05;;;;;;;1.00;1.00;;;8.10;99.90;;;;;;4885693;29;20222;-77
2021/01/22 19:07:33;;;;;;;0.80;0.80;;;;;;;;;;4887949;29;20205;-76
2021/01/22 19:10:00;;;;;;;0.80;0.80;;;8.00;99.90;;;;;;4886816;29;20726;-77
2021/01/22 19:12:29;;;;;;;0.90;0.90;;;;;;;;;;4887420;29;20199;-74
2021/01/22 19:14:56;;;;;;;0.70;0.70;;;;;;;;;;4888147;29;20795;-77
2021/01/22 19:17:23;;;;;;;0.80;0.80;;;7.50;99.90;;;;;;4894694;29;20218;-76
2021/01/22 19:19:51;;;;;;;0.80;0.80;;;8.00;99.90;;;;;;4914258;29;20210;-74
2021/01/22 19:22:18;;;;;;;0.80;0.80;;;7.60;99.90;;;;;;4913078;29;20739;-76
2021/01/22 19:24:44;;;;;;;1.00;1.00;;;7.90;99.90;;;;;;4886088;29;20219;-76
2021/01/22 19:27:11;;;;;;;0.90;0.90;;;7.80;99.90;;;;;;4887672;29;20538;-77
2021/01/22 19:29:39;;;;;;;0.90;0.90;;;;;;;;;;4891305;29;20294;-74
2021/01/22 19:32:06;;;;;;;1.00;1.00;;;7.60;99.90;;;;;;4896390;29;20665;-74
2021/01/22 19:34:33;;;;;;;0.90;0.90;;;8.20;99.90;;;;;;4896258;29;20302;-75
2021/01/22 19:37:01;;;;;;;0.80;0.80;;;8.40;99.90;;;;;;4889644;29;20914;-75
2021/01/22 19:39:28;;;;;;;1.00;1.00;;;7.80;99.90;;;;;;4895422;29;20595;-77
2021/01/22 19:41:54;;;;;;;0.90;0.90;;;8.00;99.90;;;;;;4898240;29;20263;-77
2021/01/22 19:44:23;;;;;;;0.90;0.90;;;;;;;;;;4896405;29;20207;-75
2021/01/22 19:46:51;;;;;;;0.93;0.93;;;8.10;99.90;;;;;;4897309;29;20230;-77
2021/01/22 19:49:18;;;;;;;0.80;0.80;;;8.30;99.90;;;;;;4895911;29;20215;-77
2021/01/22 19:51:47;;;;;;;0.87;0.87;;;8.40;99.90;;;;;;4896466;29;20207;-76
2021/01/22 19:54:15;;;;;;;0.80;0.80;;;8.50;99.90;;;;;;4896505;29;20219;-76
2021/01/22 19:56:42;;;;;;;0.90;0.90;;;8.80;99.90;;;;;;4896226;29;20223;-76
2021/01/22 19:59:09;;;;;;;0.80;0.80;;;8.90;99.90;;;;;;4896324;29;20672;-74
2021/01/22 20:01:37;;;;;;;0.80;0.80;;;8.50;99.90;;;;;;4896273;29;20210;-74
2021/01/22 20:04:04;;;;;;;0.85;0.85;;;8.40;99.90;;;;;;4896109;29;20239;-74
2021/01/22 20:06:31;;;;;;;0.90;0.90;;;8.20;99.90;;;;;;4896148;29;20760;-74
2021/01/22 20:08:58;;;;;;;0.90;0.90;;;;;;;;;;4895837;29;20211;-73
2021/01/22 20:11:26;;;;;;;0.93;0.93;;;8.30;99.90;;;;;;4896248;29;20203;-75
2021/01/22 20:13:53;;;;;;;0.80;0.80;;;8.30;99.90;;;;;;4896046;29;20572;-75
2021/01/22 20:16:21;;;;;;;1.00;1.00;;;;;;;;;;4895862;29;20242;-75
2021/01/22 20:18:48;;;;;;;0.80;0.80;;;7.90;99.90;;;;;;4896137;29;20283;-76
2021/01/22 20:21:15;;;;;;;0.90;0.90;;;7.50;99.90;;;;;;4896204;29;20271;-75
2021/01/22 20:23:44;;;;;;;1.00;1.00;;;7.40;99.90;;;;;;4896194;29;20247;-76
2021/01/22 20:26:12;;;;;;;0.80;0.80;;;7.20;99.90;;;;;;4896014;29;20636;-75
2021/01/22 20:28:41;;;;;;;1.00;1.00;;;7.40;99.90;;;;;;4895790;29;20259;-76
2021/01/22 20:31:08;;;;;;;0.93;0.93;;;7.80;99.90;;;;;;4895894;29;20211;-75
2021/01/22 20:33:35;;;;;;;0.80;0.80;;;;;;;;;;4896006;29;20203;-76
2021/01/22 20:36:03;;;;;;;0.90;0.90;;;;;;;;;;4896117;29;20307;-76
2021/01/22 20:38:29;;;;;;;0.70;0.70;;;7.70;99.90;;;;;;4895933;29;20211;-76
2021/01/22 20:40:56;;;;;;;0.97;0.97;;;7.70;99.90;;;;;;4898827;29;20629;-76
2021/01/22 20:43:24;;;;;;;0.90;0.90;;;7.80;99.90;;;;;;4899397;29;20232;-76
2021/01/22 20:45:52;;;;;;;0.97;0.97;;;7.80;99.90;;;;;;4899084;29;20767;-77
2021/01/22 20:48:20;;;;;;;0.90;0.90;;;;;;;;;;4899264;29;20206;-76
2021/01/22 20:50:47;;;;;;;0.80;0.80;;;;;;;;;;4899203;29;20369;-75
2021/01/22 20:53:14;;;;;;;1.00;1.00;;;7.80;99.90;;;;;;4899335;29;20267;-76
2021/01/22 20:55:41;;;;;;;0.80;0.80;;;;;;;;;;4899042;29;20571;-75
2021/01/22 20:58:13;;;;;;;0.90;0.90;;;7.90;99.90;;;;;;4898850;29;20263;-77
2021/01/22 21:00:40;;;;;;;0.70;0.70;;;8.00;99.90;;;;;;4899327;29;20226;-76
2021/01/22 21:03:07;;;;;;;0.87;0.87;;;7.70;99.90;;;;;;4899171;29;20210;-76
2021/01/22 21:05:34;;;;;;;0.80;0.80;;;7.80;99.90;;;;;;4899014;29;20231;-76
2021/01/22 21:08:03;;;;;;;0.80;0.80;;;7.90;99.90;;;;;;4898939;29;20207;-77
2021/01/22 21:10:30;;;;;;;1.00;1.00;;;;;;;;;;4899197;29;20211;-76
2021/01/22 21:12:57;;;;;;;0.80;0.80;;;7.60;99.90;;;;;;4899491;29;20695;-76
2021/01/22 21:15:24;;;;;;;1.00;1.00;;;;;;;;;;4898075;29;20649;-77
2021/01/22 21:17:52;;;;;;;0.90;0.90;;;7.70;99.90;;;;;;4899066;29;20592;-77
2021/01/22 21:20:20;;;;;;;0.90;0.90;;;7.60;99.90;;;;;;4899383;29;20226;-77
2021/01/22 21:22:47;;;;;;;0.97;0.97;;;7.70;99.90;;;;;;4898897;29;20739;-77
2021/01/22 21:25:14;;;;;;;0.80;0.80;;;7.70;99.90;;;;;;4898999;29;20314;-77
2021/01/22 21:27:42;;;;;;;0.97;0.97;;;7.80;99.90;;;;;;4899237;29;20262;-78
2021/01/22 21:30:10;;;;;;;0.93;0.93;;;7.60;99.90;;;;;;4899128;29;20211;-77
2021/01/22 21:32:37;;;;;;;0.70;0.70;;;8.00;99.90;;;;;;4898188;29;20676;-78
2021/01/22 21:35:08;;;;;;;0.83;0.83;;;7.90;99.90;;;;;;4899743;29;20227;-77
2021/01/22 21:37:37;;;;;;;0.97;0.97;;;8.00;99.90;;;;;;4892415;29;20256;-77
2021/01/22 21:40:04;;;;;;;0.90;0.90;;;8.00;99.90;;;;;;4891381;29;20227;-78
2021/01/22 21:42:32;;;;;;;0.80;0.80;;;8.10;99.90;;;;;;4891710;29;20548;-79
2021/01/22 21:45:00;;;;;;;0.87;0.87;;;7.80;99.90;;;;;;4890218;29;20643;-79
2021/01/22 21:47:28;;;;;;;0.90;0.90;;;7.90;99.90;;;;;;4889172;29;20289;-78
2021/01/22 21:49:55;;;;;;;0.90;0.90;;;;;;;;;;4891285;29;20228;-79
2021/01/22 21:52:22;;;;;;;0.83;0.83;;;;;;;;;;4890105;29;20315;-78
2021/01/22 21:54:52;;;;;;;0.90;0.90;;;8.20;99.90;;;;;;4889507;29;20224;-78
2021/01/22 21:57:18;;;;;;;0.90;0.90;;;8.10;99.90;;;;;;4891267;29;20660;-78
2021/01/22 21:59:45;;;;;;;0.80;0.80;;;8.50;99.90;;;;;;4896099;29;20203;-78
